• Join FlightAware (Why Join?)
  • Login
  • US Flag 
03:07AM EDT


 

Airport Tracker/Info


-or-


 

Live Flight TrackerFlight Track Log ✈ N1944E ✈ 18-Jun-2013 ✈ KRKS - KCOD

Flight Track Log - Related Links

Times and Time Zones

All times are in EDT time to prevent confusion due to time zone crossing. See the N1944E flight status page for this flight to view local times or setup timezone preferences in your user account.

Time Position Orientation Groundspeed Altitude Reporting Facility
EDT Latitude Longitude Course Direction KTS MPH feet Rate Location/Type
12:08AM 41.6589 -109.0597 North 158 182 10,200  Level Salt Lake Center
12:09AM 41.7022 -109.0544 North 160 184 11,100 900 Climbing Salt Lake Center
12:10AM 41.7542 -109.0522 North 165 190 12,100 840 Climbing Salt Lake Center
12:11AM 41.7989 -109.0594 353° North 167 192 12,900 780 Climbing Salt Lake Center
12:12AM 41.8444 -109.0653 355° North 170 196 13,700 840 Climbing Salt Lake Center
12:13AM 41.9011 -109.0586 North 180 207 14,700 960 Climbing Salt Lake Center
12:14AM 41.9489 -109.0569 North 179 206 15,700 600 Climbing Salt Lake Center
12:15AM 41.9978 -109.0589 358° North 181 208 16,000 120 Climbing Salt Lake Center
12:16AM 42.0647 -109.0575 North 206 237 16,000  Level Salt Lake Center
12:17AM 42.1242 -109.0572 360° North 219 252 16,000  Level Salt Lake Center
12:19AM 42.1886 -109.0544 North 211 243 16,000  Level Salt Lake Center
12:20AM 42.2447 -109.0508 North 210 242 16,000  Level Salt Lake Center
12:21AM 42.3019 -109.0483 North 214 246 16,000  Level Salt Lake Center
12:22AM 42.3678 -109.0497 359° North 212 244 16,000  Level Salt Lake Center
12:23AM 42.4233 -109.0486 North 211 243 16,000  Level Salt Lake Center
12:24AM 42.4875 -109.0481 360° North 208 239 16,000  Level Salt Lake Center
12:25AM 42.5436 -109.0469 North 209 241 16,000  Level Salt Lake Center
12:26AM 42.5994 -109.0397 North 209 241 16,000  Level Salt Lake Center
12:27AM 42.6650 -109.0281 North 211 243 16,000  Level Salt Lake Center
12:28AM 42.7233 -109.0225 North 215 247 16,000  Level Salt Lake Center
12:29AM 42.7906 -109.0239 359° North 216 249 16,000  Level Salt Lake Center
12:30AM 42.8481 -109.0300 356° North 217 250 16,100  Climbing Salt Lake Center
12:31AM 42.9044 -109.0358 356° North 214 246 16,000 -60 Descending Salt Lake Center
12:32AM 42.9689 -109.0411 357° North 210 242 16,000  Level Salt Lake Center
12:33AM 43.0231 -109.0381 North 207 238 16,000  Level Salt Lake Center
12:34AM 43.0772 -109.0289 North 205 236 16,000  Level Salt Lake Center
12:35AM 43.1414 -109.0219 North 206 237 16,000  Level Salt Lake Center
12:36AM 43.1972 -109.0086 10° North 209 241 16,000  Level Salt Lake Center
12:37AM 43.2611 -108.9908 11° North 210 242 16,000  Level Salt Lake Center
12:38AM 43.3144 -108.9783 10° North 210 242 16,000  Level Salt Lake Center
12:40AM 43.4031 -108.9596 North  Level FlightAware Approximate
12:47AM 43.7873 -108.8876 14° North  Level FlightAware Approximate
12:48AM 43.8420 -108.8750 North  Level FlightAware Approximate
12:49AM 43.8969 -108.8640 North  Level FlightAware Approximate
12:50AM 43.9518 -108.8530 North  Level FlightAware Approximate
12:51AM 44.0068 -108.8420 North  Level FlightAware Approximate
12:52AM 44.0617 -108.8310 North  Level FlightAware Approximate
12:53AM 44.1167 -108.8200 North  Level FlightAware Approximate
12:54AM 44.1716 -108.8090 North  Level FlightAware Approximate